Terminal Aerodrome Forecast
Issued by NWS

Current Version | Previous Version | Text Only | Print | Product List | Glossary Off
Versions: 1 2 3 4 5 6 7 8 9 10 11 12 13 14

357
FTUS41 KPBZ 250520
TAFHLG
TAF
KHLG 250520Z 2506/2606 26007KT P6SM SCT060
     FM251500 26011G20KT P6SM BKN060
     FM260200 26006KT P6SM SKC=

USA.gov is the U.S. government's official web portal to all federal, state and local government web resources and services.